createdAt,value
2023-08-22T00:01:23.166Z,4.50
2023-08-22T00:11:28.699Z,4.60
2023-08-22T00:21:34.141Z,4.80
2023-08-22T00:31:39.671Z,4.50
2023-08-22T00:41:45.264Z,4.20
2023-08-22T00:46:48.115Z,4.40
2023-08-22T00:56:55.135Z,4.90
2023-08-22T01:01:58.028Z,4.70
2023-08-22T01:12:50.313Z,4.70
2023-08-22T01:17:58.782Z,4.20
2023-08-22T01:23:01.744Z,4.30
2023-08-22T01:33:22.162Z,4.20
2023-08-22T01:38:28.529Z,4.10
2023-08-22T01:43:35.055Z,4.30
2023-08-22T01:48:38.191Z,5.00
2023-08-22T01:53:40.963Z,4.80
2023-08-22T01:58:43.660Z,4.20
2023-08-22T02:03:47.569Z,4.90
2023-08-22T02:08:50.473Z,5.10
2023-08-22T02:13:53.257Z,5.30
2023-08-22T02:23:59.531Z,5.10
2023-08-22T02:29:02.374Z,4.90
2023-08-22T02:39:09.310Z,5.40
2023-08-22T02:44:13.453Z,5.40
2023-08-22T02:49:16.165Z,5.70
2023-08-22T02:54:19.050Z,5.50
2023-08-22T03:04:24.468Z,5.70
2023-08-22T03:09:27.402Z,5.70
2023-08-22T03:19:32.859Z,5.70
2023-08-22T03:24:35.646Z,6.30
2023-08-22T03:29:38.363Z,6.80
2023-08-22T03:34:41.179Z,5.10
2023-08-22T03:39:43.906Z,6.10
2023-08-22T03:44:47.155Z,6.00
2023-08-22T03:49:49.986Z,6.10
2023-08-22T03:59:55.506Z,6.50
2023-08-22T04:04:59.105Z,8.20
2023-08-22T04:10:03.283Z,6.80
2023-08-22T04:15:06.561Z,6.10
2023-08-22T04:20:11.659Z,6.60
2023-08-22T04:25:14.473Z,5.70
2023-08-22T04:30:17.488Z,5.20
2023-08-22T04:35:20.238Z,5.60
2023-08-22T04:40:22.997Z,5.50
2023-08-22T04:45:25.737Z,5.40
2023-08-22T04:55:33.008Z,3.90
2023-08-22T05:05:38.443Z,4.90
2023-08-22T05:15:44.736Z,6.50
2023-08-22T05:20:53.026Z,6.70
2023-08-22T05:25:55.740Z,5.30
2023-08-22T05:36:01.707Z,6.30
2023-08-22T05:41:04.563Z,5.60
2023-08-22T05:51:10.142Z,6.00
2023-08-22T06:01:16.761Z,5.30
2023-08-22T06:06:19.596Z,5.30
2023-08-22T06:11:22.591Z,4.50
2023-08-22T06:16:25.374Z,5.30
2023-08-22T06:21:28.148Z,4.50
2023-08-22T06:26:30.872Z,4.40
2023-08-22T06:31:33.787Z,4.30
2023-08-22T06:36:36.496Z,4.40
2023-08-22T06:41:39.197Z,3.90
2023-08-22T06:51:45.481Z,4.20
2023-08-22T06:56:48.272Z,3.80
2023-08-22T07:01:51.041Z,3.40
2023-08-22T07:06:53.881Z,4.20
2023-08-22T07:11:56.645Z,3.40
2023-08-22T07:16:59.454Z,3.30
2023-08-22T07:22:02.247Z,3.60
2023-08-22T07:27:05.061Z,3.10
2023-08-22T07:32:09.929Z,3.40
2023-08-22T07:37:14.215Z,3.10
2023-08-22T07:42:17.734Z,2.90
2023-08-22T07:47:20.493Z,2.80
2023-08-22T07:52:23.273Z,2.60
2023-08-22T07:57:26.059Z,2.70
2023-08-22T08:02:29.238Z,2.30
2023-08-22T08:07:32.172Z,2.40
2023-08-22T08:12:35.099Z,2.80
2023-08-22T08:17:38.027Z,2.70
2023-08-22T08:22:40.862Z,2.10
2023-08-22T08:27:43.604Z,2.80
2023-08-22T08:32:46.650Z,2.30
2023-08-22T08:37:50.886Z,2.30
2023-08-22T08:42:53.829Z,2.60
2023-08-22T08:48:00.244Z,2.50
2023-08-22T08:53:03.480Z,2.50
2023-08-22T08:58:06.290Z,2.80
2023-08-22T09:03:10.259Z,2.60
2023-08-22T09:08:18.261Z,2.60
2023-08-22T09:13:42.026Z,2.70
2023-08-22T09:18:52.098Z,2.30
2023-08-22T09:24:06.349Z,2.40
2023-08-22T09:29:09.147Z,2.20
2023-08-22T09:34:14.020Z,2.40
2023-08-22T09:39:20.908Z,2.70
2023-08-22T09:44:25.421Z,2.50
2023-08-22T09:49:31.175Z,2.60
2023-08-22T09:54:34.345Z,2.00
2023-08-22T09:59:39.146Z,2.60
2023-08-22T10:04:42.759Z,2.40
2023-08-22T10:09:45.665Z,2.40
2023-08-22T10:14:53.115Z,2.40
2023-08-22T10:20:08.550Z,2.10
2023-08-22T10:25:11.355Z,2.50
2023-08-22T10:30:14.090Z,2.10
2023-08-22T10:35:19.454Z,2.30
2023-08-22T10:40:33.291Z,2.70
2023-08-22T10:45:57.122Z,2.30
2023-08-22T10:51:07.535Z,2.00
2023-08-22T10:56:24.949Z,2.70
2023-08-22T11:01:29.165Z,2.20
2023-08-22T11:06:31.931Z,2.70
2023-08-22T11:11:36.194Z,2.30
2023-08-22T11:16:39.584Z,2.50
2023-08-22T11:21:42.362Z,2.40
2023-08-22T11:26:45.121Z,2.20
2023-08-22T11:31:47.850Z,2.20
2023-08-22T11:36:50.593Z,2.30
2023-08-22T11:41:53.344Z,2.50
2023-08-22T11:46:56.104Z,2.60
2023-08-22T11:51:58.846Z,2.30
2023-08-22T11:57:02.230Z,2.40
2023-08-22T12:02:05.069Z,2.50
2023-08-22T12:07:07.867Z,2.40
2023-08-22T12:12:15.558Z,2.50
2023-08-22T12:17:19.980Z,2.30
2023-08-22T12:22:22.719Z,2.80
2023-08-22T12:27:28.671Z,3.00
2023-08-22T12:32:35.212Z,2.30
2023-08-22T12:37:39.393Z,3.30
2023-08-22T12:42:43.190Z,2.50
2023-08-22T12:47:46.277Z,2.30
2023-08-22T12:52:49.701Z,3.20
2023-08-22T12:57:52.977Z,2.40
2023-08-22T13:02:57.235Z,2.30
2023-08-22T13:08:00.111Z,2.10
2023-08-22T13:13:04.391Z,2.30
2023-08-22T13:18:07.287Z,2.80
2023-08-22T13:23:10.059Z,2.50
2023-08-22T13:28:14.069Z,2.50
2023-08-22T13:33:17.011Z,2.30
2023-08-22T13:38:19.792Z,3.20
2023-08-22T13:43:22.547Z,2.70
2023-08-22T13:48:25.303Z,2.30
2023-08-22T13:53:30.723Z,2.40
2023-08-22T13:58:33.497Z,2.20
2023-08-22T14:03:37.292Z,2.40
2023-08-22T14:08:40.880Z,2.20
2023-08-22T14:13:44.407Z,3.10
2023-08-22T14:18:47.513Z,2.70
2023-08-22T14:23:50.314Z,2.50
2023-08-22T14:28:53.191Z,2.60
2023-08-22T14:33:55.917Z,2.60
2023-08-22T14:38:58.730Z,2.50
2023-08-22T14:44:02.223Z,2.20
2023-08-22T14:49:05.010Z,2.50
2023-08-22T14:54:07.790Z,2.40
2023-08-22T14:59:11.334Z,2.40
2023-08-22T15:04:14.105Z,2.60
2023-08-22T15:09:16.832Z,2.30
2023-08-22T15:14:19.662Z,2.40
2023-08-22T15:19:22.426Z,2.60
2023-08-22T15:24:25.145Z,2.20
2023-08-22T15:29:27.879Z,2.40
2023-08-22T15:34:30.586Z,2.40
2023-08-22T15:39:33.378Z,2.30
2023-08-22T15:44:36.247Z,2.30
2023-08-22T15:49:38.976Z,2.50
2023-08-22T15:54:42.549Z,2.50
2023-08-22T15:59:46.353Z,2.60
2023-08-22T16:04:49.366Z,2.60
2023-08-22T16:09:52.112Z,3.10
2023-08-22T16:14:54.846Z,2.30
2023-08-22T16:19:57.576Z,2.60
2023-08-22T16:25:00.301Z,2.60
2023-08-22T16:30:03.376Z,2.70
2023-08-22T16:35:06.654Z,3.10
2023-08-22T16:40:15.794Z,3.20
2023-08-22T16:45:18.576Z,3.00
2023-08-22T16:50:21.347Z,2.70
2023-08-22T16:55:24.591Z,2.90
2023-08-22T17:00:27.497Z,2.60
2023-08-22T17:05:32.576Z,4.30
2023-08-22T17:10:35.326Z,4.80
2023-08-22T17:15:38.100Z,5.90
2023-08-22T17:20:40.870Z,7.10
2023-08-22T17:25:43.614Z,6.00
2023-08-22T17:30:46.378Z,9.40
2023-08-22T17:35:49.136Z,8.00
2023-08-22T17:40:51.879Z,6.50
2023-08-22T17:45:54.758Z,8.00
2023-08-22T17:50:59.538Z,6.50
2023-08-22T17:56:03.257Z,6.90
2023-08-22T18:01:08.078Z,19.10
2023-08-22T18:06:10.831Z,13.90
2023-08-22T18:11:14.349Z,7.90
2023-08-22T18:16:17.182Z,3.40
2023-08-22T18:21:19.972Z,3.30
2023-08-22T18:26:22.940Z,3.30
2023-08-22T18:31:27.541Z,4.90
2023-08-22T18:36:30.470Z,14.00
2023-08-22T18:41:33.525Z,22.80
2023-08-22T18:46:36.451Z,22.80
2023-08-22T18:51:39.221Z,7.80
2023-08-22T18:56:42.242Z,4.40
2023-08-22T19:01:45.910Z,5.20
2023-08-22T19:06:48.773Z,4.30
2023-08-22T19:11:51.559Z,4.00
2023-08-22T19:21:57.039Z,4.10
2023-08-22T19:32:17.194Z,4.90
2023-08-22T19:37:24.398Z,4.90
2023-08-22T19:42:27.205Z,4.80
2023-08-22T19:47:30.121Z,4.80
2023-08-22T19:52:33.241Z,6.00
2023-08-22T19:57:36.090Z,10.00
2023-08-22T20:02:38.897Z,10.70
2023-08-22T20:12:44.974Z,6.30
2023-08-22T20:17:48.130Z,6.20
2023-08-22T20:22:51.285Z,5.80
2023-08-22T20:32:56.942Z,6.50
2023-08-22T20:43:02.453Z,6.10
2023-08-22T20:48:05.741Z,8.60
2023-08-22T20:53:08.564Z,6.90
2023-08-22T20:58:11.314Z,11.40
2023-08-22T21:03:14.217Z,10.40
2023-08-22T21:08:17.908Z,7.00
2023-08-22T21:13:20.704Z,8.00
2023-08-22T21:18:23.509Z,9.70
2023-08-22T21:23:26.282Z,7.90
2023-08-22T21:28:29.035Z,8.60
2023-08-22T21:33:31.827Z,8.20
2023-08-22T21:38:34.657Z,9.30
2023-08-22T21:43:37.396Z,8.80
2023-08-22T21:48:40.297Z,9.50
2023-08-22T21:53:43.000Z,10.90
2023-08-22T21:58:45.791Z,9.80
2023-08-22T22:03:48.613Z,9.60
2023-08-22T22:08:51.430Z,9.70
2023-08-22T22:13:54.224Z,9.40
2023-08-22T22:18:57.109Z,8.00
2023-08-22T22:23:59.838Z,8.50
2023-08-22T22:29:02.603Z,9.00
2023-08-22T22:34:06.237Z,6.90
2023-08-22T22:39:09.169Z,7.40
2023-08-22T22:44:11.925Z,7.90
2023-08-22T22:49:14.634Z,12.40
2023-08-22T22:54:17.363Z,11.60
2023-08-22T22:59:20.527Z,8.10
2023-08-22T23:04:23.350Z,8.00
2023-08-22T23:09:26.150Z,7.30
2023-08-22T23:14:29.511Z,7.20
2023-08-22T23:19:32.274Z,7.50
2023-08-22T23:24:35.145Z,7.20
2023-08-22T23:29:37.889Z,6.40
2023-08-22T23:34:41.494Z,5.90
2023-08-22T23:39:44.274Z,7.40
2023-08-22T23:44:48.517Z,7.40
2023-08-22T23:49:51.408Z,7.70
2023-08-22T23:54:54.140Z,7.40
2023-08-22T23:59:56.882Z,6.20
